Time,TemperatureF,DewpointF,PressureIn,WindDirection,WindDirectionDegrees,WindSpeedMPH,WindSpeedGustMPH,Humidity,HourlyPrecipIn,Conditions,Clouds,dailyrainin,SoftwareType,DateUTC
2013-06-22 11:02:00,72.0,65.0,30.33,SE,136,0.0,3.0,79,0.00,,,0.00,,2013-06-22 15:02:00,
2013-06-22 11:12:00,73.0,64.0,30.33,ESE,106,0.0,3.0,74,0.00,,,0.00,,2013-06-22 15:12:00,
2013-06-22 11:22:00,74.0,64.0,30.33,East,92,1.0,3.0,71,0.00,,,0.00,,2013-06-22 15:22:00,
2013-06-22 11:34:00,75.0,65.0,30.34,SW,233,1.0,3.0,71,0.00,,,0.00,,2013-06-22 15:34:00,
2013-06-22 11:43:00,76.0,65.0,30.34,WNW,283,0.0,2.0,68,0.00,,,0.00,,2013-06-22 15:43:00,
2013-06-22 11:53:00,76.0,66.0,30.33,WNW,284,1.0,5.0,72,0.00,,,0.00,,2013-06-22 15:53:00,
2013-06-22 12:02:00,77.0,65.0,30.33,West,259,0.0,3.0,66,0.00,,,0.00,,2013-06-22 16:02:00,
2013-06-22 12:12:00,78.0,66.0,30.33,East,80,1.0,5.0,66,0.00,,,0.00,,2013-06-22 16:12:00,
2013-06-22 12:22:00,78.0,63.0,30.33,East,92,0.0,5.0,60,0.00,,,0.00,,2013-06-22 16:22:00,
2013-06-22 12:34:00,79.0,64.0,30.33,SE,127,0.0,5.0,61,0.00,,,0.00,,2013-06-22 16:34:00,
2013-06-22 12:43:00,80.0,64.0,30.32,ENE,69,0.0,3.0,59,0.00,,,0.00,,2013-06-22 16:43:00,
2013-06-22 12:52:00,80.0,65.0,30.32,ENE,59,0.0,3.0,60,0.00,,,0.00,,2013-06-22 16:52:00,
2013-06-22 13:02:00,80.0,63.0,30.32,SE,130,0.0,2.0,57,0.00,,,0.00,,2013-06-22 17:02:00,
2013-06-22 13:11:00,81.0,65.0,30.32,NNE,25,0.0,2.0,58,0.00,,,0.00,,2013-06-22 17:11:00,
2013-06-22 13:22:00,81.0,65.0,30.32,SSE,149,0.0,2.0,59,0.00,,,0.00,,2013-06-22 17:22:00,
2013-06-22 13:34:00,81.0,63.0,30.32,SSE,164,0.0,3.0,55,0.00,,,0.00,,2013-06-22 17:34:00,
2013-06-22 13:43:00,81.0,65.0,30.32,SSW,211,0.0,2.0,59,0.00,,,0.00,,2013-06-22 17:43:00,
2013-06-22 13:52:00,82.0,63.0,30.31,NNE,13,1.0,3.0,53,0.00,,,0.00,,2013-06-22 17:52:00,
2013-06-22 14:02:00,83.0,65.0,30.31,ESE,114,0.0,3.0,55,0.00,,,0.00,,2013-06-22 18:02:00,
2013-06-22 14:12:00,83.0,65.0,30.30,South,169,0.0,2.0,55,0.00,,,0.00,,2013-06-22 18:12:00,
2013-06-22 14:23:00,83.0,67.0,30.30,SSE,159,0.0,3.0,59,0.00,,,0.00,,2013-06-22 18:23:00,
2013-06-22 14:34:00,84.0,66.0,30.29,SSE,159,0.0,1.0,54,0.00,,,0.00,,2013-06-22 18:34:00,
2013-06-22 14:43:00,84.0,65.0,30.29,SE,136,1.0,2.0,53,0.00,,,0.00,,2013-06-22 18:43:00,
2013-06-22 14:52:00,84.0,65.0,30.29,East,83,0.0,1.0,53,0.00,,,0.00,,2013-06-22 18:52:00,
2013-06-22 15:01:00,84.0,66.0,30.28,South,178,0.0,2.0,54,0.00,,,0.00,,2013-06-22 19:01:00,
2013-06-22 15:11:00,83.0,64.0,30.28,NE,46,1.0,3.0,52,0.00,,,0.00,,2013-06-22 19:11:00,
2013-06-22 15:22:00,84.0,65.0,30.27,ESE,122,0.0,1.0,53,0.00,,,0.00,,2013-06-22 19:22:00,
2013-06-22 15:33:00,84.0,66.0,30.27,SSE,167,0.0,3.0,55,0.00,,,0.00,,2013-06-22 19:33:00,
2013-06-22 15:43:00,84.0,66.0,30.26,NNE,31,0.0,1.0,55,0.00,,,0.00,,2013-06-22 19:43:00,
2013-06-22 15:53:00,83.0,66.0,30.26,SE,130,0.0,2.0,57,0.00,,,0.00,,2013-06-22 19:53:00,
2013-06-22 16:02:00,83.0,65.0,30.26,East,101,0.0,1.0,54,0.00,,,0.00,,2013-06-22 20:02:00,
2013-06-22 16:11:00,82.0,65.0,30.25,NNE,22,0.0,3.0,56,0.00,,,0.00,,2013-06-22 20:11:00,
2013-06-22 16:22:00,82.0,63.0,30.25,East,90,0.0,3.0,53,0.00,,,0.00,,2013-06-22 20:22:00,
2013-06-22 16:33:00,82.0,65.0,30.24,NNE,28,0.0,1.0,56,0.00,,,0.00,,2013-06-22 20:33:00,
2013-06-22 16:43:00,82.0,65.0,30.24,South,171,0.0,2.0,57,0.00,,,0.00,,2013-06-22 20:43:00,
2013-06-22 16:53:00,82.0,64.0,30.24,East,92,0.0,2.0,55,0.00,,,0.00,,2013-06-22 20:53:00,
2013-06-22 17:01:00,82.0,66.0,30.24,East,93,0.0,1.0,59,0.00,,,0.00,,2013-06-22 21:01:00,
2013-06-22 17:11:00,81.0,66.0,30.24,East,93,0.0,1.0,60,0.00,,,0.00,,2013-06-22 21:11:00,
2013-06-22 17:22:00,81.0,65.0,30.24,NE,41,0.0,1.0,59,0.00,,,0.00,,2013-06-22 21:22:00,
2013-06-22 17:34:00,81.0,66.0,30.24,ESE,106,0.0,1.0,61,0.00,,,0.00,,2013-06-22 21:34:00,
2013-06-22 17:43:00,80.0,65.0,30.23,ESE,115,0.0,1.0,60,0.00,,,0.00,,2013-06-22 21:43:00,
2013-06-22 17:53:00,79.0,65.0,30.23,ENE,75,0.0,2.0,63,0.00,,,0.00,,2013-06-22 21:53:00,
2013-06-22 18:02:00,79.0,65.0,30.23,ESE,122,0.0,1.0,62,0.00,,,0.00,,2013-06-22 22:02:00,
2013-06-22 18:12:00,79.0,66.0,30.23,SSE,164,0.0,2.0,64,0.00,,,0.00,,2013-06-22 22:12:00,
2013-06-22 18:23:00,78.0,65.0,30.23,SSE,164,0.0,0.0,64,0.00,,,0.00,,2013-06-22 22:23:00,
2013-06-22 18:33:00,78.0,65.0,30.23,SSE,164,0.0,1.0,65,0.00,,,0.00,,2013-06-22 22:33:00,
2013-06-22 18:43:00,78.0,65.0,30.23,SSE,164,0.0,0.0,64,0.00,,,0.00,,2013-06-22 22:43:00,
2013-06-22 18:52:00,78.0,65.0,30.23,SSE,164,0.0,0.0,65,0.00,,,0.00,,2013-06-22 22:52:00,
2013-06-22 19:01:00,78.0,65.0,30.22,ESE,109,0.0,1.0,65,0.00,,,0.00,,2013-06-22 23:01:00,
2013-06-22 19:11:00,77.0,65.0,30.22,ESE,109,0.0,0.0,66,0.00,,,0.00,,2013-06-22 23:11:00,
2013-06-22 19:22:00,77.0,65.0,30.22,ESE,109,0.0,1.0,66,0.00,,,0.00,,2013-06-22 23:22:00,
2013-06-22 19:34:00,77.0,66.0,30.22,ESE,107,0.0,0.0,68,0.00,,,0.00,,2013-06-22 23:34:00,
2013-06-22 19:43:00,77.0,66.0,30.22,ESE,108,0.0,0.0,69,0.00,,,0.00,,2013-06-22 23:43:00,
2013-06-22 19:52:00,76.0,65.0,30.22,ESE,108,0.0,0.0,70,0.00,,,0.00,,2013-06-22 23:52:00,
2013-06-22 20:01:00,76.0,65.0,30.21,ESE,108,0.0,0.0,70,0.00,,,0.00,,2013-06-23 00:01:00,
2013-06-22 20:11:00,76.0,66.0,30.21,ESE,107,0.0,0.0,72,0.00,,,0.00,,2013-06-23 00:11:00,
2013-06-22 20:22:00,75.0,67.0,30.22,ESE,108,0.0,0.0,75,0.00,,,0.00,,2013-06-23 00:22:00,
2013-06-22 20:33:00,75.0,67.0,30.22,ESE,107,0.0,0.0,77,0.00,,,0.00,,2013-06-23 00:33:00,
2013-06-22 20:42:00,75.0,67.0,30.21,ESE,108,0.0,0.0,77,0.00,,,0.00,,2013-06-23 00:42:00,
2013-06-22 20:53:00,74.0,67.0,30.21,ESE,107,0.0,0.0,79,0.00,,,0.00,,2013-06-23 00:53:00,
2013-06-22 21:01:00,74.0,67.0,30.21,ESE,107,0.0,0.0,79,0.00,,,0.00,,2013-06-23 01:01:00,
2013-06-22 21:11:00,74.0,67.0,30.21,ESE,107,0.0,0.0,79,0.00,,,0.00,,2013-06-23 01:11:00,
2013-06-22 21:22:00,74.0,67.0,30.21,ESE,107,0.0,0.0,79,0.00,,,0.00,,2013-06-23 01:22:00,
2013-06-22 21:32:00,71.0,65.0,30.23,ESE,108,0.0,0.0,82,0.00,,,0.00,,2013-06-23 01:32:00,
2013-06-22 21:42:00,71.0,65.0,30.23,ESE,108,0.0,0.0,82,0.00,,,0.00,,2013-06-23 01:42:00,
2013-06-22 21:52:00,71.0,65.0,30.23,ESE,108,0.0,0.0,82,0.00,,,0.00,,2013-06-23 01:52:00,
2013-06-22 22:01:00,71.0,65.0,30.23,ESE,108,0.0,0.0,82,0.00,,,0.00,,2013-06-23 02:01:00,
2013-06-22 22:11:00,71.0,65.0,30.23,ESE,108,0.0,0.0,82,0.00,,,0.00,,2013-06-23 02:11:00,
2013-06-22 22:41:00,69.0,64.0,30.24,ESE,108,0.0,0.0,85,0.00,,,0.00,,2013-06-23 02:41:00,
2013-06-22 22:52:00,69.0,64.0,30.24,ESE,108,0.0,0.0,85,0.00,,,0.00,,2013-06-23 02:52:00,
2013-06-22 23:01:00,69.0,64.0,30.24,ESE,108,0.0,0.0,85,0.00,,,0.00,,2013-06-23 03:01:00,
2013-06-22 23:11:00,69.0,64.0,30.24,ESE,108,0.0,0.0,85,0.00,,,0.00,,2013-06-23 03:11:00,
2013-06-22 23:21:00,69.0,64.0,30.24,ESE,108,0.0,0.0,85,0.00,,,0.00,,2013-06-23 03:21:00,
2013-06-22 23:41:00,69.0,65.0,30.24,ESE,108,0.0,0.0,86,0.00,,,0.00,,2013-06-23 03:41:00,
2013-06-22 23:52:00,69.0,65.0,30.24,ESE,108,0.0,0.0,86,0.00,,,0.00,,2013-06-23 03:52:00,